KGKT

Gatlinburg-Pigeon Forge Airport

Sevierville, Tennessee, USA
METAR KGKT 162355Z AUTO VRB05KT 10SM OVC025 09/06 A3014 RMK A01
Observed Flight Rules
Dec-16 @ 23:55 UTC (29 minutes ago) Marginal Visual Flight Rules
Wind Visibility Clouds
Variable at 5 knots 10 miles
  • Overcast at 2,500' AGL
Temperatures Readings
Current 9°C / 48°F
Dewpoint 6°C / 43°F
Humidity 82%
Altimeter 30.14" Hg
Pressure 1021 hPa
Elevation 309
METAR KGKT 162355Z AUTO VRB05KT 10SM OVC025 09/06 A3014 RMK A01
Observed Flight Rules
Dec-16 @ 23:55 UTC
(29 minutes ago)
MVFR
Wind Visibility
Variable at 5 knots 10 miles
Clouds
  • Overcast at 2,500' AGL
Temperature Dewpoint
9°C / 48°F 6°C / 43°F
Humidity Altimeter Pressure
82% 30.14" Hg 1021 hPa